createdAt,value
2017-12-31T00:02:01.415Z,11.10
2017-12-31T00:04:31.030Z,11.30
2017-12-31T00:06:59.907Z,11.20
2017-12-31T00:09:29.523Z,11.30
2017-12-31T00:11:59.153Z,11.30
2017-12-31T00:14:28.868Z,11.20
2017-12-31T00:16:58.267Z,11.30
2017-12-31T00:19:27.113Z,11.30
2017-12-31T00:21:56.753Z,11.30
2017-12-31T00:24:25.617Z,11.20
2017-12-31T00:26:55.238Z,11.30
2017-12-31T00:29:24.866Z,11.30
2017-12-31T00:31:54.473Z,11.30
2017-12-31T00:34:23.359Z,11.20
2017-12-31T00:36:52.921Z,11.20
2017-12-31T00:39:21.785Z,11.20
2017-12-31T00:41:51.550Z,11.20
2017-12-31T00:44:21.178Z,11.20
2017-12-31T00:46:50.119Z,11.10
2017-12-31T00:49:18.959Z,11.10
2017-12-31T00:51:47.801Z,11.10
2017-12-31T00:54:16.667Z,11.10
2017-12-31T00:56:45.501Z,11.10
2017-12-31T00:59:15.147Z,11.40
2017-12-31T01:01:44.031Z,11.30
2017-12-31T01:04:12.894Z,11.40
2017-12-31T01:06:41.754Z,11.60
2017-12-31T01:09:10.636Z,11.60
2017-12-31T01:11:39.487Z,11.50
2017-12-31T01:14:08.370Z,11.40
2017-12-31T01:16:37.239Z,11.30
2017-12-31T01:19:06.931Z,11.20
2017-12-31T01:21:35.818Z,11.20
2017-12-31T01:24:04.649Z,11.20
2017-12-31T01:26:33.737Z,11.20
2017-12-31T01:29:03.352Z,11.10
2017-12-31T01:31:32.191Z,11.10
2017-12-31T01:34:01.033Z,11.10
2017-12-31T01:36:30.666Z,10.90
2017-12-31T01:38:59.506Z,10.80
2017-12-31T01:41:28.974Z,10.80
2017-12-31T01:43:57.831Z,10.80
2017-12-31T01:46:27.558Z,10.70
2017-12-31T01:49:02.358Z,10.70
2017-12-31T01:51:31.998Z,10.70
2017-12-31T01:54:00.838Z,10.70
2017-12-31T01:56:29.874Z,10.60
2017-12-31T01:58:58.731Z,10.60
2017-12-31T02:01:29.097Z,10.60
2017-12-31T02:03:57.953Z,10.60
2017-12-31T02:06:27.577Z,10.60
2017-12-31T02:08:56.485Z,10.60
2017-12-31T02:11:25.354Z,10.50
2017-12-31T02:13:54.986Z,10.60
2017-12-31T02:16:23.834Z,10.50
2017-12-31T02:18:53.473Z,10.60
2017-12-31T02:21:22.627Z,10.50
2017-12-31T02:23:51.561Z,10.60
2017-12-31T02:26:20.326Z,10.70
2017-12-31T02:28:49.934Z,11.00
2017-12-31T02:31:18.784Z,11.00
2017-12-31T02:33:47.671Z,11.00
2017-12-31T02:36:16.545Z,11.10
2017-12-31T02:38:46.164Z,11.20
2017-12-31T02:41:15.027Z,11.20
2017-12-31T02:43:43.866Z,11.30
2017-12-31T02:46:12.726Z,11.30
2017-12-31T02:48:41.599Z,11.30
2017-12-31T02:51:11.222Z,11.30
2017-12-31T02:53:40.093Z,11.20
2017-12-31T02:56:10.438Z,11.20
2017-12-31T02:58:39.293Z,11.20
2017-12-31T03:01:08.917Z,11.30
2017-12-31T03:03:38.527Z,11.30
2017-12-31T03:06:08.151Z,11.30
2017-12-31T03:08:37.002Z,11.30
2017-12-31T03:11:05.837Z,11.40
2017-12-31T03:13:34.720Z,11.30
2017-12-31T03:16:03.574Z,11.40
2017-12-31T03:18:33.197Z,11.40
2017-12-31T03:21:02.028Z,11.40
2017-12-31T03:23:30.942Z,11.40
2017-12-31T03:25:59.768Z,11.30
2017-12-31T03:28:29.365Z,11.20
2017-12-31T03:30:58.991Z,11.20
2017-12-31T03:33:27.948Z,11.20
2017-12-31T03:35:56.765Z,11.10
2017-12-31T03:38:26.397Z,11.00
2017-12-31T03:40:55.247Z,10.90
2017-12-31T03:43:24.099Z,10.90
2017-12-31T03:45:52.947Z,10.90
2017-12-31T03:48:21.831Z,10.90
2017-12-31T03:50:51.471Z,11.00
2017-12-31T03:53:20.332Z,11.00
2017-12-31T03:55:49.967Z,11.00
2017-12-31T03:58:18.815Z,10.90
2017-12-31T04:00:48.433Z,11.00
2017-12-31T04:03:18.053Z,11.00
2017-12-31T04:05:46.905Z,10.90
2017-12-31T04:08:15.756Z,11.00
2017-12-31T04:10:44.611Z,11.00
2017-12-31T04:13:14.214Z,11.00
2017-12-31T04:15:43.822Z,11.00
2017-12-31T04:18:13.426Z,10.90
2017-12-31T04:20:43.034Z,10.90
2017-12-31T04:23:12.679Z,10.90
2017-12-31T04:25:41.565Z,10.90
2017-12-31T04:28:10.423Z,10.80
2017-12-31T04:30:40.042Z,10.90
2017-12-31T04:33:09.661Z,10.80
2017-12-31T04:35:38.474Z,10.80
2017-12-31T04:38:07.309Z,10.70
2017-12-31T04:40:36.167Z,10.70
2017-12-31T04:43:04.999Z,10.70
2017-12-31T04:45:33.841Z,10.70
2017-12-31T04:48:02.669Z,10.70
2017-12-31T04:50:31.520Z,10.60
2017-12-31T04:53:00.346Z,10.60
2017-12-31T04:55:29.192Z,10.60
2017-12-31T04:57:58.028Z,10.60
2017-12-31T05:00:26.963Z,10.70
2017-12-31T05:02:55.770Z,10.70
2017-12-31T05:05:24.609Z,10.60
2017-12-31T05:07:53.445Z,10.70
2017-12-31T05:10:22.277Z,10.70
2017-12-31T05:12:51.133Z,10.70
2017-12-31T05:15:19.961Z,10.70
2017-12-31T05:17:48.790Z,10.80
2017-12-31T05:20:18.427Z,10.80
2017-12-31T05:22:48.276Z,10.90
2017-12-31T05:25:17.137Z,10.90
2017-12-31T05:27:46.003Z,11.00
2017-12-31T05:30:14.833Z,11.10
2017-12-31T05:32:43.707Z,11.10
2017-12-31T05:35:12.519Z,11.10
2017-12-31T05:37:41.361Z,11.10
2017-12-31T05:40:11.010Z,11.20
2017-12-31T05:42:39.881Z,11.10
2017-12-31T05:45:08.706Z,11.20
2017-12-31T05:47:37.582Z,11.30
2017-12-31T05:50:06.393Z,11.30
2017-12-31T05:52:35.243Z,11.30
2017-12-31T05:55:04.088Z,11.30
2017-12-31T05:57:33.737Z,11.30
2017-12-31T06:00:03.092Z,11.30
2017-12-31T06:02:31.920Z,11.30
2017-12-31T06:05:00.794Z,11.40
2017-12-31T06:07:30.414Z,11.30
2017-12-31T06:09:59.271Z,11.20
2017-12-31T06:12:28.121Z,11.40
2017-12-31T06:14:56.965Z,11.30
2017-12-31T06:17:26.582Z,11.30
2017-12-31T06:19:56.211Z,11.40
2017-12-31T06:22:25.055Z,11.30
2017-12-31T06:24:53.905Z,11.40
2017-12-31T06:27:22.947Z,11.40
2017-12-31T06:29:52.566Z,11.30
2017-12-31T06:32:22.193Z,11.40
2017-12-31T06:34:51.049Z,11.40
2017-12-31T06:37:19.885Z,11.40
2017-12-31T06:39:48.729Z,11.40
2017-12-31T06:42:17.581Z,11.40
2017-12-31T06:44:47.230Z,11.40
2017-12-31T06:47:16.144Z,11.40
2017-12-31T06:49:44.957Z,11.40
2017-12-31T06:52:13.844Z,11.40
2017-12-31T06:54:43.889Z,11.40
2017-12-31T06:57:12.746Z,11.40
2017-12-31T06:59:48.814Z,11.30
2017-12-31T07:02:17.653Z,11.30
2017-12-31T07:04:46.505Z,11.30
2017-12-31T07:07:15.375Z,11.30
2017-12-31T07:09:44.190Z,11.30
2017-12-31T07:12:13.825Z,11.40
2017-12-31T07:14:42.686Z,11.40
2017-12-31T07:17:12.290Z,11.50
2017-12-31T07:19:41.977Z,11.50
2017-12-31T07:22:10.779Z,11.40
2017-12-31T07:24:40.409Z,11.60
2017-12-31T07:27:09.585Z,11.50
2017-12-31T07:29:39.506Z,11.60
2017-12-31T07:32:09.126Z,11.60
2017-12-31T07:34:37.975Z,11.50
2017-12-31T07:37:06.850Z,11.60
2017-12-31T07:39:35.693Z,11.60
2017-12-31T07:42:04.541Z,11.70
2017-12-31T07:44:33.383Z,11.70
2017-12-31T07:47:02.678Z,11.80
2017-12-31T07:49:31.570Z,11.80
2017-12-31T07:52:00.428Z,11.70
2017-12-31T07:54:30.067Z,11.80
2017-12-31T07:56:58.905Z,11.70
2017-12-31T07:59:28.738Z,11.80
2017-12-31T08:01:58.361Z,11.90
2017-12-31T08:04:27.214Z,11.80
2017-12-31T08:06:56.066Z,11.90
2017-12-31T08:09:24.907Z,12.00
2017-12-31T08:11:53.885Z,11.90
2017-12-31T08:14:22.725Z,12.00
2017-12-31T08:16:52.194Z,12.10
2017-12-31T08:19:21.026Z,12.10
2017-12-31T08:21:49.860Z,12.10
2017-12-31T08:24:18.720Z,12.10
2017-12-31T08:26:47.586Z,12.20
2017-12-31T08:29:16.401Z,12.10
2017-12-31T08:31:45.241Z,12.10
2017-12-31T08:34:15.240Z,12.10
2017-12-31T08:36:44.866Z,12.10
2017-12-31T08:39:13.725Z,12.00
2017-12-31T08:41:42.558Z,12.10
2017-12-31T08:44:11.718Z,12.10
2017-12-31T08:46:41.337Z,12.10
2017-12-31T08:49:10.158Z,12.00
2017-12-31T08:51:38.998Z,12.10
2017-12-31T08:54:07.833Z,12.10
2017-12-31T08:56:36.705Z,12.10
2017-12-31T08:59:05.564Z,12.00
2017-12-31T09:01:34.395Z,12.10
2017-12-31T09:04:03.292Z,12.10
2017-12-31T09:06:32.171Z,12.20
2017-12-31T09:09:01.023Z,12.20
2017-12-31T09:11:29.855Z,12.30
2017-12-31T09:13:58.716Z,12.30
2017-12-31T09:16:27.535Z,12.30
2017-12-31T09:18:56.390Z,12.30
2017-12-31T09:21:25.998Z,12.40
2017-12-31T09:23:55.613Z,12.50
2017-12-31T09:26:25.654Z,12.50
2017-12-31T09:28:56.426Z,12.40
2017-12-31T09:31:26.825Z,12.50
2017-12-31T09:33:55.654Z,12.50
2017-12-31T09:36:25.744Z,12.60
2017-12-31T09:38:54.576Z,12.50
2017-12-31T09:41:24.202Z,12.60
2017-12-31T09:43:53.823Z,12.60
2017-12-31T09:46:22.672Z,12.50
2017-12-31T09:48:52.301Z,12.60
2017-12-31T09:51:21.906Z,12.70
2017-12-31T09:53:50.769Z,12.60
2017-12-31T09:56:20.370Z,12.80
2017-12-31T09:58:51.035Z,12.70
2017-12-31T10:01:20.258Z,12.90
2017-12-31T10:03:49.080Z,12.90
2017-12-31T10:06:17.919Z,12.90
2017-12-31T10:08:46.763Z,12.80
2017-12-31T10:11:16.382Z,12.80
2017-12-31T10:13:45.996Z,12.80
2017-12-31T10:16:15.578Z,12.90
2017-12-31T10:18:45.750Z,12.80
2017-12-31T10:21:14.596Z,12.80
2017-12-31T10:23:43.474Z,12.90
2017-12-31T10:26:12.281Z,12.90
2017-12-31T10:28:41.926Z,13.00
2017-12-31T10:31:11.299Z,12.90
2017-12-31T10:33:40.918Z,13.10
2017-12-31T10:36:09.769Z,13.00
2017-12-31T10:38:38.614Z,13.10
2017-12-31T10:41:07.454Z,13.10
2017-12-31T10:43:36.430Z,13.10
2017-12-31T10:46:05.295Z,13.10
2017-12-31T10:48:34.130Z,13.00
2017-12-31T10:51:02.963Z,13.00
2017-12-31T10:53:31.793Z,13.10
2017-12-31T10:56:00.666Z,13.10
2017-12-31T10:58:29.509Z,13.40
2017-12-31T11:01:00.191Z,13.70
2017-12-31T11:03:29.041Z,13.90
2017-12-31T11:05:57.897Z,14.10
2017-12-31T11:08:26.739Z,14.00
2017-12-31T11:10:55.661Z,14.00
2017-12-31T11:13:24.472Z,13.90
2017-12-31T11:15:53.338Z,13.90
2017-12-31T11:18:22.161Z,13.80
2017-12-31T11:20:51.770Z,13.70
2017-12-31T11:23:21.383Z,13.70
2017-12-31T11:25:50.974Z,13.70
2017-12-31T11:28:20.583Z,13.80
2017-12-31T11:30:50.186Z,14.00
2017-12-31T11:33:19.134Z,13.90
2017-12-31T11:35:47.976Z,13.90
2017-12-31T11:38:17.591Z,13.80
2017-12-31T11:40:46.456Z,13.70
2017-12-31T11:43:15.256Z,13.90
2017-12-31T11:45:44.891Z,13.80
2017-12-31T11:48:13.730Z,13.80
2017-12-31T11:50:42.583Z,13.90
2017-12-31T11:53:11.418Z,14.00
2017-12-31T11:55:41.054Z,14.20
2017-12-31T11:58:10.704Z,14.10
2017-12-31T12:00:39.558Z,14.00
2017-12-31T12:03:08.794Z,14.10
2017-12-31T12:05:37.627Z,14.00
2017-12-31T12:08:07.237Z,13.90
2017-12-31T12:10:36.868Z,14.00
2017-12-31T12:13:05.701Z,13.90
2017-12-31T12:15:34.568Z,14.10
2017-12-31T12:18:03.423Z,14.50
2017-12-31T12:20:32.276Z,14.60
2017-12-31T12:23:01.153Z,14.50
2017-12-31T12:25:29.984Z,14.30
2017-12-31T12:27:59.627Z,14.10
2017-12-31T12:30:28.465Z,14.10
2017-12-31T12:32:57.294Z,14.00
2017-12-31T12:35:26.161Z,14.00
2017-12-31T12:37:55.056Z,14.00
2017-12-31T12:40:23.933Z,14.00
2017-12-31T12:42:53.525Z,14.10
2017-12-31T12:45:23.126Z,14.20
2017-12-31T12:47:52.737Z,14.30
2017-12-31T12:50:21.640Z,14.20
2017-12-31T12:52:50.607Z,14.40
2017-12-31T12:55:20.258Z,14.50
2017-12-31T12:57:49.111Z,14.40
2017-12-31T13:00:17.962Z,14.40
2017-12-31T13:02:46.818Z,14.50
2017-12-31T13:05:16.420Z,14.40
2017-12-31T13:07:45.288Z,14.40
2017-12-31T13:10:14.910Z,14.40
2017-12-31T13:12:43.758Z,14.30
2017-12-31T13:15:13.483Z,14.30
2017-12-31T13:17:43.081Z,14.40
2017-12-31T13:20:11.910Z,14.40
2017-12-31T13:22:40.799Z,14.40
2017-12-31T13:25:09.638Z,14.40
2017-12-31T13:27:38.530Z,14.40
2017-12-31T13:30:07.379Z,14.40
2017-12-31T13:32:36.234Z,14.30
2017-12-31T13:35:05.854Z,14.20
2017-12-31T13:37:34.979Z,14.20
2017-12-31T13:40:03.807Z,14.20
2017-12-31T13:42:33.479Z,14.30
2017-12-31T13:45:02.353Z,14.30
2017-12-31T13:47:31.188Z,14.20
2017-12-31T13:50:00.038Z,14.10
2017-12-31T13:52:28.909Z,14.10
2017-12-31T13:54:57.776Z,14.00
2017-12-31T13:57:27.718Z,14.10
2017-12-31T13:59:56.563Z,14.10
2017-12-31T14:02:25.400Z,14.10
2017-12-31T14:04:54.276Z,14.10
2017-12-31T14:07:23.130Z,14.10
2017-12-31T14:09:51.982Z,14.00
2017-12-31T14:12:20.863Z,14.10
2017-12-31T14:14:49.691Z,14.00
2017-12-31T14:17:18.540Z,14.00
2017-12-31T14:19:47.370Z,13.90
2017-12-31T14:22:16.275Z,13.90
2017-12-31T14:24:45.101Z,13.90
2017-12-31T14:27:14.177Z,13.90
2017-12-31T14:29:43.777Z,13.90
2017-12-31T14:32:13.398Z,13.80
2017-12-31T14:34:42.975Z,13.80
2017-12-31T14:37:11.807Z,13.80
2017-12-31T14:39:40.671Z,13.80
2017-12-31T14:42:09.523Z,13.80
2017-12-31T14:44:39.170Z,13.80
2017-12-31T14:47:08.055Z,13.80
2017-12-31T14:49:36.856Z,13.80
2017-12-31T14:52:05.685Z,13.80
2017-12-31T14:54:34.609Z,13.80
2017-12-31T14:57:03.554Z,13.80
2017-12-31T14:59:32.401Z,13.80
2017-12-31T15:02:01.275Z,13.80
2017-12-31T15:04:30.909Z,13.80
2017-12-31T15:06:59.731Z,13.70
2017-12-31T15:09:28.583Z,13.80
2017-12-31T15:11:57.456Z,13.80
2017-12-31T15:14:27.044Z,13.80
2017-12-31T15:16:56.331Z,13.80
2017-12-31T15:19:25.331Z,13.80
2017-12-31T15:21:54.168Z,13.80
2017-12-31T15:24:23.246Z,13.80
2017-12-31T15:26:52.118Z,13.80
2017-12-31T15:29:21.122Z,13.80
2017-12-31T15:31:50.017Z,13.70
2017-12-31T15:34:18.886Z,13.70
2017-12-31T15:36:48.500Z,13.70
2017-12-31T15:39:18.392Z,13.60
2017-12-31T15:41:47.215Z,13.60
2017-12-31T15:44:16.075Z,13.70
2017-12-31T15:46:44.908Z,13.70
2017-12-31T15:49:14.518Z,13.60
2017-12-31T15:51:44.445Z,13.70
2017-12-31T15:54:13.266Z,13.60
2017-12-31T15:56:42.238Z,13.70
2017-12-31T15:59:11.084Z,13.60
2017-12-31T16:01:39.942Z,13.50
2017-12-31T16:04:08.806Z,13.40
2017-12-31T16:06:37.773Z,13.30
2017-12-31T16:09:07.383Z,13.10
2017-12-31T16:11:37.027Z,13.00
2017-12-31T16:14:05.858Z,13.00
2017-12-31T16:16:34.702Z,13.00
2017-12-31T16:19:03.600Z,12.90
2017-12-31T16:21:32.477Z,12.80
2017-12-31T16:24:01.321Z,12.70
2017-12-31T16:26:30.179Z,12.60
2017-12-31T16:28:59.494Z,12.50
2017-12-31T16:31:28.348Z,12.50
2017-12-31T16:33:57.184Z,12.40
2017-12-31T16:36:26.069Z,12.40
2017-12-31T16:38:54.895Z,12.30
2017-12-31T16:41:23.707Z,12.20
2017-12-31T16:43:52.573Z,12.10
2017-12-31T16:46:22.198Z,12.00
2017-12-31T16:48:51.089Z,11.90
2017-12-31T16:51:19.937Z,12.00
2017-12-31T16:53:48.793Z,11.90
2017-12-31T16:56:17.631Z,11.80
2017-12-31T16:58:46.489Z,11.70
2017-12-31T17:01:15.308Z,11.70
2017-12-31T17:03:44.967Z,11.70
2017-12-31T17:06:13.797Z,11.70
2017-12-31T17:08:42.649Z,11.70
2017-12-31T17:11:11.518Z,11.70
2017-12-31T17:13:40.346Z,11.80
2017-12-31T17:16:09.210Z,11.80
2017-12-31T17:18:38.051Z,11.80
2017-12-31T17:21:06.908Z,11.70
2017-12-31T17:23:35.756Z,11.80
2017-12-31T17:26:04.627Z,11.80
2017-12-31T17:28:34.224Z,11.80
2017-12-31T17:31:03.861Z,11.80
2017-12-31T17:33:32.717Z,11.70
2017-12-31T17:36:02.575Z,11.70
2017-12-31T17:38:31.418Z,11.70
2017-12-31T17:41:01.088Z,11.80
2017-12-31T17:43:29.923Z,11.70
2017-12-31T17:45:58.752Z,11.80
2017-12-31T17:48:27.621Z,11.80
2017-12-31T17:50:56.485Z,11.80
2017-12-31T17:53:25.330Z,11.80
2017-12-31T17:55:54.167Z,11.80
2017-12-31T17:58:23.012Z,11.80
2017-12-31T18:00:52.506Z,11.80
2017-12-31T18:03:21.367Z,11.70
2017-12-31T18:05:50.990Z,11.70
2017-12-31T18:08:19.833Z,11.70
2017-12-31T18:10:48.678Z,11.70
2017-12-31T18:13:17.518Z,11.70
2017-12-31T18:15:46.354Z,11.60
2017-12-31T18:18:15.207Z,11.60
2017-12-31T18:20:44.035Z,11.60
2017-12-31T18:23:12.922Z,11.60
2017-12-31T18:25:41.790Z,11.60
2017-12-31T18:28:10.617Z,11.60
2017-12-31T18:30:39.463Z,11.60
2017-12-31T18:33:09.098Z,11.60
2017-12-31T18:35:37.900Z,11.50
2017-12-31T18:38:06.749Z,11.50
2017-12-31T18:40:36.349Z,11.60
2017-12-31T18:43:05.204Z,11.60
2017-12-31T18:45:34.860Z,11.50
2017-12-31T18:48:03.693Z,11.50
2017-12-31T18:50:32.542Z,11.60
2017-12-31T18:53:01.388Z,11.60
2017-12-31T18:55:31.020Z,11.60
2017-12-31T18:57:59.863Z,11.60
2017-12-31T19:00:28.706Z,11.70
2017-12-31T19:02:57.559Z,11.60
2017-12-31T19:05:26.373Z,11.70
2017-12-31T19:07:55.210Z,11.70
2017-12-31T19:10:24.050Z,11.70
2017-12-31T19:12:53.018Z,11.60
2017-12-31T19:15:22.635Z,11.60
2017-12-31T19:17:52.254Z,11.60
2017-12-31T19:20:21.867Z,11.60
2017-12-31T19:22:50.705Z,11.50
2017-12-31T19:25:19.545Z,11.50
2017-12-31T19:27:48.390Z,11.50
2017-12-31T19:30:17.222Z,11.50
2017-12-31T19:32:46.056Z,11.50
2017-12-31T19:35:14.899Z,11.60
2017-12-31T19:37:44.177Z,11.70
2017-12-31T19:40:13.806Z,11.70
2017-12-31T19:42:42.647Z,11.60
2017-12-31T19:45:12.262Z,11.60
2017-12-31T19:47:41.095Z,11.60
2017-12-31T19:50:09.980Z,11.70
2017-12-31T19:52:38.811Z,11.70
2017-12-31T19:55:07.678Z,11.60
2017-12-31T19:57:36.497Z,11.60
2017-12-31T20:00:05.374Z,11.60
2017-12-31T20:02:34.453Z,11.60
2017-12-31T20:05:03.291Z,11.70
2017-12-31T20:07:32.132Z,11.70
2017-12-31T20:10:01.117Z,11.70
2017-12-31T20:12:29.973Z,11.80
2017-12-31T20:14:58.818Z,11.80
2017-12-31T20:17:28.431Z,11.80
2017-12-31T20:19:57.253Z,11.80
2017-12-31T20:22:26.102Z,11.90
2017-12-31T20:24:54.974Z,11.80
2017-12-31T20:27:24.665Z,11.80
2017-12-31T20:29:53.503Z,11.70
2017-12-31T20:32:22.327Z,11.60
2017-12-31T20:34:51.159Z,11.40
2017-12-31T20:37:20.759Z,11.00
2017-12-31T20:39:50.383Z,10.80
2017-12-31T20:42:19.206Z,10.80
2017-12-31T20:44:48.041Z,10.80
2017-12-31T20:47:16.870Z,10.70
2017-12-31T20:49:45.721Z,10.70
2017-12-31T20:52:14.551Z,10.60
2017-12-31T20:54:43.386Z,10.60
2017-12-31T20:57:12.242Z,10.50
2017-12-31T20:59:41.975Z,10.40
2017-12-31T21:02:10.830Z,10.30
2017-12-31T21:04:39.678Z,10.30
2017-12-31T21:07:08.569Z,10.30
2017-12-31T21:09:37.414Z,10.30
2017-12-31T21:12:07.027Z,10.20
2017-12-31T21:14:36.646Z,10.10
2017-12-31T21:17:05.513Z,10.10
2017-12-31T21:19:34.337Z,10.00
2017-12-31T21:22:03.179Z,10.00
2017-12-31T21:24:32.024Z,10.00
2017-12-31T21:27:01.647Z,9.90
2017-12-31T21:29:30.503Z,9.90
2017-12-31T21:32:00.105Z,9.90
2017-12-31T21:34:29.714Z,9.90
2017-12-31T21:36:59.328Z,9.90
2017-12-31T21:39:28.902Z,9.90
2017-12-31T21:41:57.718Z,9.80
2017-12-31T21:44:26.870Z,9.90
2017-12-31T21:46:56.481Z,9.90
2017-12-31T21:49:26.105Z,10.00
2017-12-31T21:51:55.007Z,9.90
2017-12-31T21:54:24.592Z,9.90
2017-12-31T21:56:54.242Z,9.90
2017-12-31T21:59:23.126Z,9.90
2017-12-31T22:01:52.690Z,10.00
2017-12-31T22:04:22.317Z,9.90
2017-12-31T22:06:51.159Z,9.90
2017-12-31T22:09:20.761Z,10.00
2017-12-31T22:11:49.614Z,10.00
2017-12-31T22:14:18.447Z,10.00
2017-12-31T22:16:47.297Z,10.10
2017-12-31T22:19:16.145Z,10.00
2017-12-31T22:21:44.966Z,10.00
2017-12-31T22:24:13.826Z,10.00
2017-12-31T22:26:43.455Z,10.00
2017-12-31T22:29:12.289Z,10.00
2017-12-31T22:31:41.106Z,10.00
2017-12-31T22:34:10.748Z,10.00
2017-12-31T22:36:39.611Z,10.00
2017-12-31T22:39:09.221Z,10.10
2017-12-31T22:41:38.825Z,10.00
2017-12-31T22:44:07.669Z,10.00
2017-12-31T22:46:36.503Z,10.10
2017-12-31T22:49:05.778Z,10.10
2017-12-31T22:51:34.593Z,10.20
2017-12-31T22:54:03.432Z,10.20
2017-12-31T22:56:32.270Z,10.20
2017-12-31T22:59:01.129Z,10.20
2017-12-31T23:01:29.951Z,10.20
2017-12-31T23:03:58.833Z,10.20
2017-12-31T23:06:28.473Z,10.20
2017-12-31T23:08:57.426Z,10.20
2017-12-31T23:11:27.045Z,10.20
2017-12-31T23:13:56.812Z,10.10
2017-12-31T23:16:25.722Z,10.10
2017-12-31T23:18:55.371Z,10.10
2017-12-31T23:21:24.221Z,10.00
2017-12-31T23:23:53.828Z,10.00
2017-12-31T23:26:23.460Z,10.00
2017-12-31T23:28:52.322Z,9.90
2017-12-31T23:31:21.955Z,9.80
2017-12-31T23:33:50.845Z,9.70
2017-12-31T23:36:19.691Z,9.70
2017-12-31T23:38:48.543Z,9.70
2017-12-31T23:41:17.426Z,9.60
2017-12-31T23:43:46.270Z,9.50
2017-12-31T23:46:15.450Z,9.40
2017-12-31T23:48:45.085Z,9.30
2017-12-31T23:51:14.293Z,9.20
2017-12-31T23:53:43.166Z,9.20
2017-12-31T23:56:12.001Z,9.20
2017-12-31T23:58:40.858Z,9.10
